Time;durP1;ratioP1;P1;durP2;ratioP2;P2;SDS_P1;SDS_P2;PMS_P1;PMS_P2;Temp;Humidity;BMP_temperature;BMP_pressure;BME280_temperature;BME280_humidity;BME280_pressure;Samples;Min_cycle;Max_cycle;Signal;HPM_P1;HPM_P2
2021/04/13 00:01:11;;;;;;;8.88;3.92;;;10.30;62.20;;;;;;6185811;23;20405;-55
2021/04/13 00:03:48;;;;;;;9.20;3.33;;;10.30;62.20;;;;;;6185689;23;20032;-55
2021/04/13 00:06:25;;;;;;;7.97;3.53;;;10.30;62.30;;;;;;6185793;23;20028;-56
2021/04/13 00:08:55;;;;;;;6.05;3.45;;;10.30;62.20;;;;;;6185108;23;20413;-55
2021/04/13 00:11:22;;;;;;;4.53;3.08;;;10.30;62.20;;;;;;6185848;23;20071;-55
2021/04/13 00:13:52;;;;;;;8.65;3.58;;;10.30;62.30;;;;;;6185908;23;20005;-56
2021/04/13 00:16:23;;;;;;;8.27;3.70;;;10.30;62.40;;;;;;6187558;23;20039;-55
2021/04/13 00:18:50;;;;;;;5.32;3.33;;;10.30;62.30;;;;;;6186789;23;20364;-56
2021/04/13 00:21:25;;;;;;;5.50;3.35;;;10.30;63.00;;;;;;6187624;23;20001;-56
2021/04/13 00:23:51;;;;;;;6.22;3.63;;;10.30;62.30;;;;;;6187680;23;20002;-55
2021/04/13 00:26:23;;;;;;;4.50;3.28;;;10.30;62.30;;;;;;6187745;23;20008;-55
2021/04/13 00:28:51;;;;;;;4.68;2.85;;;10.30;62.30;;;;;;6187108;23;20009;-56
2021/04/13 00:34:17;;;;;;;5.70;3.10;;;10.30;62.20;;;;;;6187963;23;20076;-56
2021/04/13 00:36:44;;;;;;;7.78;3.70;;;10.20;62.20;;;;;;6187289;23;20076;-56
2021/04/13 00:39:23;;;;;;;5.55;3.35;;;10.20;62.20;;;;;;6210504;23;20013;-56
2021/04/13 00:42:00;;;;;;;5.50;3.33;;;10.20;62.20;;;;;;6187289;23;20084;-55
2021/04/13 00:44:27;;;;;;;6.47;3.78;;;10.20;62.20;;;;;;6187539;23;20001;-56
2021/04/13 00:47:05;;;;;;;9.63;3.42;;;10.20;62.20;;;;;;6187512;23;20039;-55
2021/04/13 00:49:35;;;;;;;11.65;5.28;;;10.20;62.20;;;;;;6187020;23;20005;-56
2021/04/13 00:52:03;;;;;;;11.50;5.43;;;10.20;62.20;;;;;;6187202;23;20012;-56
2021/04/13 00:54:35;;;;;;;11.07;3.85;;;10.20;62.30;;;;;;6187041;23;20012;-56
2021/04/13 00:57:04;;;;;;;8.65;3.50;;;10.20;62.30;;;;;;6187117;23;20397;-55
2021/04/13 00:59:31;;;;;;;4.70;3.15;;;10.10;62.20;;;;;;6186937;23;20487;-56
2021/04/13 01:02:00;;;;;;;6.88;3.05;;;10.20;62.20;;;;;;6187032;23;20389;-56
2021/04/13 01:04:46;;;;;;;5.63;3.23;;;10.10;62.20;;;;;;6187517;23;20056;-55
2021/04/13 01:07:15;;;;;;;8.02;3.00;;;10.10;62.20;;;;;;6186829;23;20409;-56
2021/04/13 01:09:49;;;;;;;4.18;2.80;;;10.10;62.20;;;;;;6186869;23;20008;-56
2021/04/13 01:12:22;;;;;;;5.57;2.97;;;10.10;62.20;;;;;;6186986;23;20409;-55
2021/04/13 01:14:48;;;;;;;5.93;2.78;;;10.10;62.20;;;;;;6187115;23;20294;-56
2021/04/13 01:17:16;;;;;;;6.00;2.97;;;10.10;62.20;;;;;;6210269;23;20282;-56
2021/04/13 01:19:50;;;;;;;4.13;2.88;;;10.10;62.20;;;;;;6186778;23;20083;-55
2021/04/13 01:22:27;;;;;;;7.53;3.00;;;10.10;62.30;;;;;;6187114;23;20008;-56
2021/04/13 01:24:59;;;;;;;5.93;2.88;;;10.10;62.20;;;;;;6186966;23;20276;-55
2021/04/13 01:27:25;;;;;;;4.32;2.50;;;10.10;62.20;;;;;;6187556;23;20051;-55
2021/04/13 01:29:52;;;;;;;5.25;3.03;;;10.10;62.20;;;;;;6186781;23;20274;-56
2021/04/13 01:32:18;;;;;;;5.10;2.88;;;10.10;62.20;;;;;;6187109;23;20005;-56
2021/04/13 01:34:50;;;;;;;4.60;2.75;;;10.00;62.10;;;;;;6187018;23;20007;-55
2021/04/13 01:37:24;;;;;;;3.80;2.58;;;10.00;62.20;;;;;;6186686;23;20426;-55
2021/04/13 01:40:42;;;;;;;5.70;3.28;;;10.00;62.10;;;;;;6186633;23;20013;-55
2021/04/13 01:42:36;;;;;;;5.30;3.20;;;10.00;62.30;;;;;;6175403;23;20015;-55
2021/04/13 01:45:17;;;;;;;5.75;3.15;;;10.00;62.00;;;;;;6186889;23;20072;-56
2021/04/13 01:47:45;;;;;;;5.55;2.63;;;10.00;62.10;;;;;;6186616;23;20297;-55
2021/04/13 01:50:24;;;;;;;3.03;2.72;;;10.00;62.10;;;;;;6186743;23;19997;-56
2021/04/13 01:52:58;;;;;;;3.40;2.05;;;10.00;62.20;;;;;;6186781;23;20027;-56
2021/04/13 01:55:26;;;;;;;5.55;2.72;;;10.00;62.10;;;;;;6187012;23;20008;-55
2021/04/13 01:58:00;;;;;;;4.53;2.88;;;10.00;62.10;;;;;;6185043;23;20008;-56
2021/04/13 02:00:31;;;;;;;4.57;2.97;;;10.00;62.10;;;;;;6186511;23;20005;-56
2021/04/13 02:03:08;;;;;;;5.63;3.03;;;10.00;62.10;;;;;;6186804;23;20007;-55
2021/04/13 02:05:37;;;;;;;3.53;2.40;;;10.00;62.10;;;;;;6186813;23;20456;-56
2021/04/13 02:08:29;;;;;;;6.18;2.95;;;10.00;62.20;;;;;;6186155;23;20013;-55
2021/04/13 02:11:17;;;;;;;5.75;2.80;;;9.90;62.10;;;;;;6187009;23;20076;-55
2021/04/13 02:13:57;;;;;;;6.43;2.80;;;9.90;62.10;;;;;;6185990;23;20080;-56
2021/04/13 02:16:30;;;;;;;5.18;2.97;;;9.90;62.10;;;;;;6186981;23;20059;-56
2021/04/13 02:18:56;;;;;;;6.20;3.00;;;9.90;62.10;;;;;;6185771;23;20021;-56
2021/04/13 02:21:37;;;;;;;3.63;2.28;;;9.90;62.10;;;;;;6186557;23;20004;-56
2021/04/13 02:24:13;;;;;;;3.97;2.75;;;9.90;62.10;;;;;;6186153;23;20032;-55
2021/04/13 02:26:44;;;;;;;5.60;3.03;;;9.90;62.10;;;;;;6186518;23;20001;-55
2021/04/13 02:29:11;;;;;;;3.97;2.80;;;9.90;62.10;;;;;;6186381;23;20084;-55
2021/04/13 02:31:37;;;;;;;4.68;3.25;;;9.90;62.10;;;;;;6186790;23;20124;-55
2021/04/13 02:34:20;;;;;;;6.82;2.70;;;9.90;62.10;;;;;;6186286;23;20294;-56
2021/04/13 02:37:01;;;;;;;5.75;2.55;;;9.90;62.10;;;;;;6186264;23;20037;-56
2021/04/13 02:39:30;;;;;;;4.60;2.88;;;9.80;62.10;;;;;;6186021;23;20012;-55
2021/04/13 02:42:05;;;;;;;4.10;2.45;;;9.80;62.10;;;;;;6186495;23;20005;-56
2021/04/13 02:44:31;;;;;;;5.25;3.03;;;9.80;62.00;;;;;;6186697;23;20001;-56
2021/04/13 02:47:01;;;;;;;5.65;2.90;;;9.80;62.10;;;;;;6186298;23;20005;-56
2021/04/13 02:49:29;;;;;;;3.85;2.30;;;9.80;62.00;;;;;;6181082;23;20008;-56
2021/04/13 02:52:02;;;;;;;4.97;2.92;;;9.80;62.10;;;;;;6186432;23;20083;-56
2021/04/13 02:54:34;;;;;;;8.88;3.53;;;9.80;62.00;;;;;;6186325;23;20005;-55
2021/04/13 02:57:05;;;;;;;5.18;2.83;;;9.80;62.00;;;;;;6186581;23;20064;-55
2021/04/13 02:59:32;;;;;;;;;;;9.80;62.00;;;;;;6185901;23;20013;-55
2021/04/13 03:02:09;;;;;;;5.00;2.90;;;9.80;62.00;;;;;;6186132;23;19900;-56
2021/04/13 03:04:48;;;;;;;5.50;2.97;;;9.80;62.00;;;;;;6184747;23;19997;-55
2021/04/13 03:07:22;;;;;;;6.75;3.30;;;9.70;62.80;;;;;;6186411;23;20005;-56
2021/04/13 03:10:09;;;;;;;7.03;3.00;;;9.70;62.00;;;;;;6185295;23;20471;-55
2021/04/13 03:12:39;;;;;;;4.45;2.80;;;9.80;62.10;;;;;;6185487;23;20011;-56
2021/04/13 03:15:07;;;;;;;7.55;3.22;;;9.70;62.10;;;;;;6186254;23;19996;-56
2021/04/13 03:17:36;;;;;;;7.93;3.20;;;9.70;62.10;;;;;;6185726;23;20482;-55
2021/04/13 03:20:11;;;;;;;7.10;3.08;;;9.70;61.90;;;;;;6185239;23;20016;-56
2021/04/13 03:22:38;;;;;;;5.90;3.47;;;9.70;62.00;;;;;;6186375;23;20005;-56
2021/04/13 03:25:10;;;;;;;10.02;3.50;;;9.70;62.10;;;;;;6185990;23;20025;-56
2021/04/13 03:27:37;;;;;;;4.63;3.22;;;9.70;62.00;;;;;;6185308;23;20000;-56
2021/04/13 03:30:22;;;;;;;6.30;3.63;;;9.70;62.00;;;;;;6185386;23;20392;-56
2021/04/13 03:33:24;;;;;;;5.97;3.42;;;9.70;62.00;;;;;;6186256;23;20131;-55
2021/04/13 03:35:50;;;;;;;5.60;3.00;;;9.70;62.00;;;;;;6185759;23;20001;-56
2021/04/13 03:38:21;;;;;;;5.55;3.33;;;9.70;62.00;;;;;;6186020;23;20013;-56
2021/04/13 03:40:49;;;;;;;7.63;3.47;;;9.70;62.00;;;;;;6185775;23;20001;-55
2021/04/13 03:43:22;;;;;;;9.82;3.78;;;9.70;62.10;;;;;;6185793;23;20001;-56
2021/04/13 03:45:53;;;;;;;6.93;3.05;;;9.70;62.80;;;;;;6185613;23;20293;-56
2021/04/13 03:48:23;;;;;;;5.40;2.38;;;9.70;62.00;;;;;;6185614;23;20005;-56
2021/04/13 03:50:58;;;;;;;4.80;2.92;;;9.60;62.60;;;;;;6185370;23;20025;-56
2021/04/13 03:53:31;;;;;;;4.00;2.67;;;9.70;62.10;;;;;;6186160;23;20008;-56
2021/04/13 03:56:10;;;;;;;5.60;2.88;;;9.70;62.00;;;;;;6185431;23;19997;-56
2021/04/13 03:58:45;;;;;;;7.85;3.50;;;9.60;61.90;;;;;;6185416;23;20016;-56
2021/04/13 04:01:19;;;;;;;4.68;2.85;;;9.70;61.90;;;;;;6185365;23;20001;-56
2021/04/13 04:03:54;;;;;;;5.60;3.05;;;9.70;61.90;;;;;;6186020;23;20072;-55
2021/04/13 04:06:56;;;;;;;7.50;2.97;;;9.60;61.90;;;;;;6185455;23;20001;-55
2021/04/13 04:09:42;;;;;;;7.75;3.17;;;9.60;61.90;;;;;;6185517;23;20005;-56
2021/04/13 04:12:34;;;;;;;6.15;3.40;;;9.60;61.90;;;;;;6185363;23;19996;-56
2021/04/13 04:15:10;;;;;;;6.97;3.15;;;9.60;61.90;;;;;;6182591;23;20397;-56
2021/04/13 04:17:49;;;;;;;5.65;2.92;;;9.60;61.90;;;;;;6185519;23;20001;-56
2021/04/13 04:20:15;;;;;;;15.35;3.50;;;9.60;61.90;;;;;;6184564;23;20021;-56
2021/04/13 04:22:53;;;;;;;7.05;3.20;;;9.60;61.80;;;;;;6185166;23;20047;-56
2021/04/13 04:25:39;;;;;;;14.93;3.92;;;9.60;62.60;;;;;;6185310;23;20063;-56
2021/04/13 04:28:22;;;;;;;6.95;2.97;;;9.60;61.80;;;;;;6185183;23;20442;-55
2021/04/13 04:30:48;;;;;;;4.55;2.80;;;9.60;61.90;;;;;;6185390;23;20068;-55
2021/04/13 04:33:38;;;;;;;7.85;3.50;;;9.60;61.80;;;;;;6185671;23;20040;-56
2021/04/13 04:36:29;;;;;;;6.95;3.47;;;9.60;61.80;;;;;;6185741;23;20009;-56
2021/04/13 04:38:55;;;;;;;7.53;4.32;;;9.60;61.90;;;;;;6185086;23;20017;-56
2021/04/13 04:41:43;;;;;;;5.65;3.28;;;9.60;61.80;;;;;;6185692;23;20032;-56
2021/04/13 04:44:20;;;;;;;9.35;3.95;;;9.60;61.80;;;;;;6185880;23;20001;-55
2021/04/13 04:46:46;;;;;;;9.65;3.30;;;9.60;61.80;;;;;;6185002;23;20005;-55
2021/04/13 04:49:14;;;;;;;7.32;3.67;;;9.50;61.80;;;;;;6185000;23;20013;-56
2021/04/13 04:51:41;;;;;;;7.97;4.00;;;9.50;62.50;;;;;;6185772;23;20061;-55
2021/04/13 04:54:08;;;;;;;11.55;3.90;;;9.50;61.80;;;;;;6185708;23;20085;-56
2021/04/13 04:56:34;;;;;;;5.22;3.70;;;9.50;61.70;;;;;;6185496;23;20060;-56
2021/04/13 04:59:00;;;;;;;7.40;3.58;;;9.50;61.70;;;;;;6185227;23;20017;-56
2021/04/13 05:01:27;;;;;;;8.90;3.92;;;9.50;61.60;;;;;;6184855;23;20031;-55
2021/04/13 05:03:53;;;;;;;7.57;3.58;;;9.50;61.60;;;;;;6186135;23;20071;-55
2021/04/13 05:06:19;;;;;;;9.50;4.30;;;9.50;61.60;;;;;;6187151;23;20001;-56
2021/04/13 05:08:46;;;;;;;7.90;3.50;;;9.60;61.00;;;;;;6186813;23;20012;-56
2021/04/13 05:11:12;;;;;;;6.93;4.40;;;9.50;61.10;;;;;;6187231;23;20001;-57
2021/04/13 05:13:38;;;;;;;6.60;3.60;;;9.50;61.00;;;;;;6210264;23;20026;-56
2021/04/13 05:16:04;;;;;;;6.07;4.00;;;9.50;60.90;;;;;;6185640;23;20004;-56
2021/04/13 05:18:30;;;;;;;5.85;3.95;;;9.50;60.80;;;;;;6186492;23;20036;-57
2021/04/13 05:20:55;;;;;;;7.57;3.55;;;9.50;60.70;;;;;;6186898;23;20005;-56
2021/04/13 05:23:21;;;;;;;9.88;4.35;;;9.50;60.60;;;;;;6187114;23;20005;-56
2021/04/13 05:25:47;;;;;;;8.70;3.65;;;9.50;60.70;;;;;;6187009;23;20009;-56
2021/04/13 05:28:14;;;;;;;7.35;4.35;;;9.50;60.70;;;;;;6186765;23;20083;-56
2021/04/13 05:30:40;;;;;;;13.73;4.35;;;9.50;60.70;;;;;;6186884;23;20001;-56
2021/04/13 05:33:05;;;;;;;10.10;4.55;;;9.50;60.70;;;;;;6186858;23;20088;-56
2021/04/13 05:35:31;;;;;;;13.00;4.10;;;9.50;60.60;;;;;;6186964;23;20077;-56
2021/04/13 05:38:00;;;;;;;11.13;4.13;;;9.50;60.70;;;;;;6186666;23;20056;-56
2021/04/13 05:40:30;;;;;;;7.32;3.80;;;9.50;60.80;;;;;;6186774;23;20016;-56
2021/04/13 05:42:58;;;;;;;7.57;4.43;;;9.50;60.80;;;;;;6187019;23;20001;-56
2021/04/13 05:45:26;;;;;;;10.00;4.45;;;9.60;61.20;;;;;;6185301;23;20371;-56
2021/04/13 05:47:52;;;;;;;5.80;3.78;;;9.70;61.40;;;;;;6210038;23;20002;-56
2021/04/13 05:50:33;;;;;;;8.23;4.32;;;9.80;61.10;;;;;;6186704;23;20005;-56
2021/04/13 05:52:58;;;;;;;10.30;5.30;;;9.80;60.60;;;;;;6185031;23;20023;-56
2021/04/13 05:55:24;;;;;;;13.60;5.38;;;9.90;60.50;;;;;;6186519;23;20009;-56
2021/04/13 05:57:53;;;;;;;7.65;4.70;;;9.90;60.60;;;;;;6186394;23;20008;-56
2021/04/13 06:00:21;;;;;;;7.97;4.78;;;10.00;60.20;;;;;;6186606;23;20032;-56
2021/04/13 06:02:47;;;;;;;8.80;4.95;;;10.00;59.90;;;;;;6186890;23;20051;-56
2021/04/13 06:05:14;;;;;;;11.75;5.50;;;10.00;59.60;;;;;;6187061;23;20084;-56
2021/04/13 06:07:41;;;;;;;10.45;5.70;;;10.00;59.50;;;;;;6186406;23;20460;-56
2021/04/13 06:10:08;;;;;;;6.85;4.22;;;10.10;59.40;;;;;;6186052;23;20020;-56
2021/04/13 06:12:34;;;;;;;11.50;5.63;;;10.10;59.30;;;;;;6186067;23;20009;-56
2021/04/13 06:14:59;;;;;;;9.07;4.93;;;10.20;59.20;;;;;;6186830;23;19997;-56
2021/04/13 06:17:25;;;;;;;8.98;5.07;;;10.20;59.10;;;;;;6186313;23;20004;-57
2021/04/13 06:19:50;;;;;;;13.32;5.55;;;10.20;58.90;;;;;;6186014;23;20017;-56
2021/04/13 06:22:17;;;;;;;8.73;4.53;;;10.20;58.80;;;;;;6186316;23;20004;-56
2021/04/13 06:24:43;;;;;;;13.35;5.95;;;10.30;59.30;;;;;;6186277;23;20023;-56
2021/04/13 06:27:09;;;;;;;8.73;4.72;;;10.30;58.60;;;;;;6186718;23;20404;-56
2021/04/13 06:29:38;;;;;;;10.55;5.68;;;10.40;58.60;;;;;;6186062;23;20340;-56
2021/04/13 06:32:08;;;;;;;7.57;4.68;;;10.40;58.50;;;;;;6186617;23;20114;-56
2021/04/13 06:34:34;;;;;;;9.73;5.82;;;10.50;58.50;;;;;;6186331;23;20345;-56
2021/04/13 06:37:03;;;;;;;10.45;5.80;;;10.50;58.30;;;;;;6184562;23;20008;-56
2021/04/13 06:39:29;;;;;;;9.82;4.97;;;10.60;58.10;;;;;;6186219;23;20017;-55
2021/04/13 06:42:22;;;;;;;8.13;4.80;;;10.70;58.10;;;;;;6186434;23;20024;-55
2021/04/13 06:45:08;;;;;;;8.75;5.35;;;10.70;58.20;;;;;;6186564;23;20009;-56
2021/04/13 06:47:48;;;;;;;13.43;4.93;;;10.80;58.10;;;;;;6186263;23;20005;-55
2021/04/13 06:50:27;;;;;;;9.75;5.10;;;10.90;58.10;;;;;;6185948;23;20005;-56
2021/04/13 06:53:03;;;;;;;7.18;4.05;;;10.90;57.90;;;;;;6186490;23;20015;-56
2021/04/13 06:55:58;;;;;;;8.90;4.53;;;11.00;57.90;;;;;;6186488;23;20012;-55
2021/04/13 06:58:29;;;;;;;8.02;5.30;;;11.10;57.80;;;;;;6130835;23;20025;-56
2021/04/13 07:01:22;;;;;;;12.35;5.80;;;11.10;57.80;;;;;;6186589;23;20009;-56
2021/04/13 07:04:19;;;;;;;9.00;4.60;;;11.20;57.80;;;;;;6185903;23;20412;-56
2021/04/13 07:06:49;;;;;;;10.10;4.50;;;11.30;57.80;;;;;;6186178;23;20001;-55
2021/04/13 07:09:29;;;;;;;6.90;4.68;;;11.40;57.80;;;;;;6185873;23;20080;-55
2021/04/13 07:11:59;;;;;;;8.20;5.20;;;11.50;57.80;;;;;;6186355;23;20005;-56
2021/04/13 07:14:33;;;;;;;11.57;5.95;;;11.50;57.90;;;;;;6186209;23;20029;-55
2021/04/13 07:17:07;;;;;;;11.07;5.10;;;11.60;57.90;;;;;;6186398;23;20009;-55
2021/04/13 07:19:38;;;;;;;11.20;5.55;;;11.70;58.50;;;;;;6184696;23;20013;-55
2021/04/13 07:22:22;;;;;;;11.35;5.18;;;11.80;57.60;;;;;;6186196;23;20009;-55
2021/04/13 07:24:56;;;;;;;9.63;5.15;;;11.80;57.40;;;;;;6185809;23;20009;-56
2021/04/13 07:27:46;;;;;;;9.77;5.32;;;11.90;57.20;;;;;;6186064;23;20021;-55
2021/04/13 07:30:20;;;;;;;10.05;6.15;;;11.90;57.00;;;;;;6184744;23;20548;-55
2021/04/13 07:32:46;;;;;;;11.18;5.70;;;12.00;56.80;;;;;;6185887;23;20012;-56
2021/04/13 07:35:18;;;;;;;12.00;6.38;;;12.10;56.70;;;;;;6185982;23;20005;-55
2021/04/13 07:37:46;;;;;;;10.10;6.20;;;12.10;56.30;;;;;;6185454;23;20082;-55
2021/04/13 07:40:12;;;;;;;15.55;7.25;;;12.20;56.10;;;;;;6185487;23;20005;-55
2021/04/13 07:42:46;;;;;;;10.90;6.68;;;12.20;56.10;;;;;;6185926;23;19997;-55
2021/04/13 07:45:36;;;;;;;13.00;7.30;;;12.20;56.00;;;;;;6185712;23;20080;-55
2021/04/13 07:48:13;;;;;;;13.75;7.03;;;12.20;55.90;;;;;;6185440;23;20005;-55
2021/04/13 07:50:51;;;;;;;16.27;8.52;;;12.20;55.90;;;;;;6185559;23;20005;-55
2021/04/13 07:53:23;;;;;;;14.20;7.47;;;12.20;55.80;;;;;;6185906;23;20005;-55
2021/04/13 07:55:55;;;;;;;11.43;7.35;;;12.30;55.70;;;;;;6186058;23;20009;-55
2021/04/13 07:58:21;;;;;;;10.60;6.85;;;12.40;55.50;;;;;;6185056;23;20013;-55
2021/04/13 08:00:52;;;;;;;8.73;5.47;;;12.40;55.20;;;;;;6185948;23;20139;-56
2021/04/13 08:03:23;;;;;;;9.85;5.72;;;12.40;55.20;;;;;;6185484;23;20424;-55
2021/04/13 08:05:50;;;;;;;;;;;12.40;55.30;;;;;;6186575;23;20044;-55
2021/04/13 08:08:29;;;;;;;11.68;6.78;;;12.40;55.20;;;;;;6185283;23;20292;-55
2021/04/13 08:11:20;;;;;;;10.75;5.85;;;12.40;55.20;;;;;;6185646;23;20009;-56
2021/04/13 08:13:49;;;;;;;8.48;5.75;;;12.30;55.10;;;;;;6185028;23;20080;-55
2021/04/13 08:16:37;;;;;;;10.65;6.38;;;12.30;55.10;;;;;;6185910;23;20002;-55
2021/04/13 08:19:24;;;;;;;8.05;4.95;;;12.30;55.10;;;;;;6185011;23;20017;-56
2021/04/13 08:22:00;;;;;;;10.57;5.70;;;12.30;55.10;;;;;;6185434;23;20484;-56
2021/04/13 08:24:37;;;;;;;8.80;4.65;;;12.30;55.10;;;;;;6185689;23;20007;-55
2021/04/13 08:27:18;;;;;;;7.32;4.30;;;12.30;55.10;;;;;;6185440;23;20351;-56
2021/04/13 08:29:59;;;;;;;11.63;4.40;;;12.30;55.10;;;;;;6185064;23;20012;-56
2021/04/13 08:32:57;;;;;;;;;;;12.30;55.90;;;;;;6186391;23;20023;-55
2021/04/13 08:35:39;;;;;;;10.30;4.90;;;12.30;55.20;;;;;;6186123;23;19904;-56
2021/04/13 08:38:44;;;;;;;7.28;4.32;;;12.20;55.10;;;;;;6187416;23;20092;-56
2021/04/13 08:41:34;;;;;;;8.65;5.43;;;12.20;55.10;;;;;;6156039;23;20341;-56
2021/04/13 08:44:36;;;;;;;8.73;5.13;;;12.20;55.30;;;;;;6185747;23;20464;-56
2021/04/13 08:47:36;;;;;;;6.97;4.72;;;12.20;55.40;;;;;;6187324;23;20005;-56
2021/04/13 08:50:18;;;;;;;7.72;4.70;;;12.10;55.40;;;;;;6186773;23;20004;-55
2021/04/13 08:52:53;;;;;;;7.18;5.05;;;12.10;55.50;;;;;;6187630;23;20071;-55
2021/04/13 08:55:40;;;;;;;7.35;4.80;;;12.10;55.60;;;;;;6187476;23;20076;-56
2021/04/13 08:58:24;;;;;;;6.40;4.50;;;12.10;55.70;;;;;;6186975;23;20475;-56
2021/04/13 09:00:51;;;;;;;8.00;4.88;;;12.10;55.60;;;;;;6186531;23;20059;-57
2021/04/13 09:03:21;;;;;;;7.10;4.80;;;12.10;55.90;;;;;;6187508;23;20007;-56
2021/04/13 09:05:49;;;;;;;5.15;3.90;;;12.10;55.90;;;;;;6187309;23;20001;-56
2021/04/13 09:08:34;;;;;;;5.47;3.80;;;12.00;55.90;;;;;;6210575;23;20005;-56
2021/04/13 09:11:05;;;;;;;6.10;3.88;;;12.00;56.00;;;;;;6187382;23;20001;-56
2021/04/13 09:13:37;;;;;;;6.05;4.63;;;12.00;56.20;;;;;;6186755;23;20005;-56
2021/04/13 09:16:06;;;;;;;5.30;4.55;;;12.00;56.10;;;;;;6187248;23;20024;-56
2021/04/13 09:18:54;;;;;;;8.82;4.75;;;12.00;56.00;;;;;;6186427;23;20289;-56
2021/04/13 09:21:20;;;;;;;8.88;5.25;;;12.00;56.20;;;;;;6187274;23;20009;-56
2021/04/13 09:23:55;;;;;;;8.48;5.03;;;12.00;56.10;;;;;;6186964;23;20001;-56
2021/04/13 09:26:32;;;;;;;8.25;4.22;;;12.00;56.20;;;;;;6186770;23;20009;-56
2021/04/13 09:29:00;;;;;;;8.35;5.38;;;12.00;56.10;;;;;;6186554;23;20068;-56
2021/04/13 09:31:30;;;;;;;7.07;4.93;;;12.10;55.70;;;;;;6185449;23;20427;-56
2021/04/13 09:34:31;;;;;;;8.65;5.53;;;12.10;55.70;;;;;;6186026;23;20008;-55
2021/04/13 09:37:20;;;;;;;12.05;6.72;;;12.10;55.50;;;;;;6124650;23;20046;-55
2021/04/13 09:39:58;;;;;;;9.65;6.10;;;12.10;55.40;;;;;;6083488;23;20021;-56
2021/04/13 09:42:43;;;;;;;8.20;4.15;;;12.20;55.30;;;;;;6124952;23;20006;-55
2021/04/13 09:45:24;;;;;;;8.52;4.80;;;12.20;55.10;;;;;;6124761;23;20306;-55
2021/04/13 09:48:07;;;;;;;6.60;4.50;;;12.20;55.00;;;;;;6124670;23;20006;-56
2021/04/13 09:50:58;;;;;;;10.82;5.15;;;12.20;55.00;;;;;;6124045;23;20014;-56
2021/04/13 09:53:50;;;;;;;5.72;3.33;;;12.30;54.80;;;;;;6124560;23;20010;-55
2021/04/13 09:56:50;;;;;;;7.20;4.85;;;12.30;54.80;;;;;;6120312;23;20006;-56
2021/04/13 09:59:38;;;;;;;6.38;3.95;;;12.30;54.70;;;;;;6123918;23;20009;-55
2021/04/13 10:02:34;;;;;;;8.30;4.85;;;12.40;54.70;;;;;;6124344;23;20093;-56
2021/04/13 10:05:35;;;;;;;12.07;5.68;;;12.40;54.60;;;;;;6123915;23;20006;-56
2021/04/13 10:08:06;;;;;;;8.88;4.95;;;12.40;54.40;;;;;;6124456;23;20013;-56
2021/04/13 10:11:11;;;;;;;8.85;5.05;;;12.40;54.50;;;;;;6124010;23;20010;-56
2021/04/13 10:14:04;;;;;;;8.18;4.40;;;12.40;54.50;;;;;;6164797;23;20312;-56
2021/04/13 10:17:05;;;;;;;7.03;4.30;;;12.40;54.40;;;;;;6209969;23;20008;-55
2021/04/13 10:19:53;;;;;;;5.50;4.03;;;12.40;54.30;;;;;;6185914;23;20020;-56
2021/04/13 10:22:49;;;;;;;8.55;4.60;;;12.40;54.20;;;;;;6185977;23;20024;-56
2021/04/13 10:25:24;;;;;;;7.90;4.50;;;12.40;54.40;;;;;;6209124;23;20013;-56
2021/04/13 10:28:31;;;;;;;6.07;3.75;;;12.40;54.30;;;;;;6186152;23;20044;-56
2021/04/13 10:31:06;;;;;;;5.28;3.92;;;12.40;54.20;;;;;;6165280;23;20012;-55
2021/04/13 10:34:29;;;;;;;5.25;3.53;;;12.40;54.30;;;;;;6186314;23;20052;-56
2021/04/13 10:37:16;;;;;;;10.00;3.70;;;12.40;54.40;;;;;;6185769;23;20084;-56
2021/04/13 10:40:08;;;;;;;6.97;4.32;;;12.30;54.40;;;;;;6185792;23;20092;-56
2021/04/13 10:43:07;;;;;;;5.53;4.38;;;12.30;54.40;;;;;;6186031;23;20005;-56
2021/04/13 10:46:21;;;;;;;6.85;3.97;;;12.30;54.10;;;;;;6186520;23;20009;-56
2021/04/13 10:49:16;;;;;;;6.10;4.13;;;12.30;54.10;;;;;;6122929;23;20010;-55
2021/04/13 10:51:59;;;;;;;7.38;4.00;;;12.30;54.00;;;;;;6124064;23;20102;-56
2021/04/13 10:54:42;;;;;;;5.75;3.85;;;12.30;54.10;;;;;;6124071;23;20002;-56
2021/04/13 10:57:35;;;;;;;7.90;3.40;;;12.30;54.80;;;;;;6123572;23;20528;-56
2021/04/13 11:00:25;;;;;;;4.72;3.50;;;12.20;54.30;;;;;;6123316;23;20061;-56
2021/04/13 11:03:22;;;;;;;6.53;4.18;;;12.20;54.00;;;;;;6123759;23;20010;-56
2021/04/13 11:06:07;;;;;;;6.78;3.85;;;12.20;53.70;;;;;;6123994;23;20009;-56
2021/04/13 11:08:32;;;;;;;7.78;3.88;;;12.30;53.40;;;;;;6123558;23;20006;-56
2021/04/13 11:11:22;;;;;;;7.10;3.72;;;12.20;53.70;;;;;;6123790;23;20006;-56
2021/04/13 11:14:24;;;;;;;4.17;2.67;;;12.20;53.50;;;;;;6123441;23;20013;-56
2021/04/13 11:17:10;;;;;;;6.10;4.40;;;12.20;53.60;;;;;;6122880;23;20044;-56
2021/04/13 11:20:24;;;;;;;7.40;4.63;;;12.20;54.20;;;;;;6122753;23;20014;-56
2021/04/13 11:23:08;;;;;;;11.40;4.55;;;12.20;53.30;;;;;;6036739;23;20499;-56
2021/04/13 11:26:08;;;;;;;5.70;3.53;;;12.20;53.40;;;;;;6093010;23;20006;-56
2021/04/13 11:28:58;;;;;;;5.63;3.35;;;12.10;53.80;;;;;;6122851;23;20101;-56
2021/04/13 11:31:55;;;;;;;3.30;2.33;;;12.10;54.10;;;;;;6123660;23;20006;-56
2021/04/13 11:34:55;;;;;;;3.67;2.85;;;12.10;54.10;;;;;;6123132;23;20013;-56
2021/04/13 11:37:59;;;;;;;6.03;3.00;;;12.10;54.20;;;;;;6122843;23;20374;-56
2021/04/13 11:40:28;;;;;;;5.40;3.97;;;12.00;54.60;;;;;;6123119;23;20037;-56
2021/04/13 11:42:57;;;;;;;4.47;3.05;;;12.00;54.90;;;;;;6123115;23;20021;-56
2021/04/13 11:45:39;;;;;;;4.30;2.50;;;12.00;55.20;;;;;;6075316;23;20540;-56
2021/04/13 11:48:05;;;;;;;4.13;2.90;;;12.00;55.20;;;;;;6123494;23;20006;-56
2021/04/13 11:50:39;;;;;;;4.35;2.40;;;12.00;55.10;;;;;;6123276;23;20085;-56
2021/04/13 11:53:12;;;;;;;2.83;2.22;;;12.00;55.30;;;;;;6145079;23;20055;-56
2021/04/13 11:55:40;;;;;;;2.58;1.70;;;12.00;55.50;;;;;;6185545;23;20009;-56
2021/04/13 11:58:31;;;;;;;3.25;2.22;;;12.00;55.50;;;;;;6185308;23;20021;-56
2021/04/13 12:01:23;;;;;;;4.40;3.00;;;12.00;55.60;;;;;;6185841;23;20016;-56
2021/04/13 12:04:01;;;;;;;5.13;3.35;;;11.90;55.60;;;;;;6123111;23;20028;-56
2021/04/13 12:06:48;;;;;;;6.95;3.80;;;12.00;55.60;;;;;;6123407;23;20010;-56
2021/04/13 12:09:59;;;;;;;6.40;3.50;;;11.90;55.70;;;;;;6122837;23;20010;-56
2021/04/13 12:12:33;;;;;;;7.82;3.42;;;11.90;55.50;;;;;;6125232;23;20006;-56
2021/04/13 12:15:07;;;;;;;5.20;3.50;;;11.90;55.40;;;;;;6125508;23;20013;-56
2021/04/13 12:17:34;;;;;;;4.57;2.95;;;11.90;55.30;;;;;;6125359;23;20345;-56
2021/04/13 12:20:22;;;;;;;3.83;2.53;;;11.90;55.40;;;;;;6124951;23;20018;-56
2021/04/13 12:22:47;;;;;;;4.80;3.15;;;11.90;55.20;;;;;;6125289;23;20006;-56
2021/04/13 12:25:50;;;;;;;4.47;2.80;;;11.90;55.10;;;;;;6125180;23;20013;-56
2021/04/13 12:28:34;;;;;;;10.05;3.42;;;11.90;55.20;;;;;;6124678;23;20394;-56
2021/04/13 12:31:05;;;;;;;4.97;3.10;;;11.90;55.20;;;;;;6125206;23;20010;-56
2021/04/13 12:33:31;;;;;;;5.95;2.78;;;11.90;55.10;;;;;;6125070;23;20009;-56
2021/04/13 12:35:59;;;;;;;3.90;2.35;;;11.90;55.20;;;;;;6125050;23;20017;-56
2021/04/13 12:38:50;;;;;;;5.93;2.92;;;11.80;55.40;;;;;;6124465;23;20014;-56
2021/04/13 12:41:18;;;;;;;7.72;3.17;;;11.80;55.50;;;;;;6172285;23;20009;-56
2021/04/13 12:43:56;;;;;;;4.78;3.28;;;11.90;55.80;;;;;;6187575;23;20004;-56
2021/04/13 12:46:34;;;;;;;5.15;3.30;;;11.80;55.90;;;;;;6187600;23;20011;-56
2021/04/13 12:49:04;;;;;;;5.85;3.08;;;11.80;55.80;;;;;;6186876;23;20001;-56
2021/04/13 12:51:31;;;;;;;6.40;3.38;;;11.80;55.70;;;;;;6187633;23;20087;-56
2021/04/13 12:54:17;;;;;;;8.15;4.13;;;11.80;55.60;;;;;;6187047;23;20397;-56
2021/04/13 12:57:09;;;;;;;6.20;3.83;;;11.80;55.40;;;;;;6187463;23;19997;-56
2021/04/13 12:59:35;;;;;;;15.77;4.18;;;11.80;55.60;;;;;;6186234;23;20017;-56
2021/04/13 13:02:04;;;;;;;7.75;3.63;;;11.80;55.80;;;;;;6185225;23;20001;-56
2021/04/13 13:04:33;;;;;;;5.82;3.97;;;11.80;55.80;;;;;;6187624;23;20080;-56
2021/04/13 13:07:00;;;;;;;8.13;4.53;;;11.80;55.80;;;;;;6186652;23;20008;-56
2021/04/13 13:09:33;;;;;;;5.47;3.67;;;11.80;55.60;;;;;;6186819;23;20005;-56
2021/04/13 13:12:18;;;;;;;7.15;4.75;;;11.80;55.40;;;;;;6186782;23;20309;-57
2021/04/13 13:14:48;;;;;;;6.90;3.90;;;11.80;55.20;;;;;;6187326;23;20008;-56
2021/04/13 13:17:38;;;;;;;6.10;3.55;;;11.80;55.20;;;;;;6185363;23;20012;-56
2021/04/13 13:20:08;;;;;;;3.83;3.10;;;11.80;55.20;;;;;;6178768;23;20020;-56
2021/04/13 13:22:34;;;;;;;4.35;2.55;;;11.80;55.10;;;;;;6186409;23;20012;-56
2021/04/13 13:25:34;;;;;;;5.18;3.53;;;11.80;55.10;;;;;;6187137;23;20072;-56
2021/04/13 13:28:07;;;;;;;4.95;3.50;;;11.80;54.90;;;;;;6124296;23;20500;-56
2021/04/13 13:30:32;;;;;;;8.27;3.28;;;11.80;54.90;;;;;;6124477;23;20006;-56
2021/04/13 13:33:00;;;;;;;5.65;3.58;;;11.80;55.00;;;;;;6124742;23;20006;-56
2021/04/13 13:35:26;;;;;;;7.82;3.70;;;11.70;55.10;;;;;;6123391;23;20002;-56
2021/04/13 13:37:55;;;;;;;7.00;4.25;;;11.80;55.30;;;;;;6123708;23;20078;-56
2021/04/13 13:40:31;;;;;;;7.18;3.65;;;11.70;55.40;;;;;;6124462;23;20650;-55